sensor_id;sensor_type;location;lat;lon;timestamp;temperature;humidity
81161;DHT22;70637;48.514;14.500;2023-07-31T00:02:03;20.20;55.40
81161;DHT22;70637;48.514;14.500;2023-07-31T00:04:29;20.20;55.50
81161;DHT22;70637;48.514;14.500;2023-07-31T00:06:55;20.20;55.20
81161;DHT22;70637;48.514;14.500;2023-07-31T00:09:20;20.20;55.10
81161;DHT22;70637;48.514;14.500;2023-07-31T00:11:46;20.10;55.00
81161;DHT22;70637;48.514;14.500;2023-07-31T00:14:14;20.10;55.10
81161;DHT22;70637;48.514;14.500;2023-07-31T00:16:40;20.10;55.20
81161;DHT22;70637;48.514;14.500;2023-07-31T00:19:05;20.10;55.30
81161;DHT22;70637;48.514;14.500;2023-07-31T00:21:31;20.00;55.40
81161;DHT22;70637;48.514;14.500;2023-07-31T00:23:56;20.00;55.50
81161;DHT22;70637;48.514;14.500;2023-07-31T00:26:23;20.00;55.50
81161;DHT22;70637;48.514;14.500;2023-07-31T00:28:50;20.00;55.60
81161;DHT22;70637;48.514;14.500;2023-07-31T00:31:16;20.00;55.50
81161;DHT22;70637;48.514;14.500;2023-07-31T00:33:44;20.00;55.20
81161;DHT22;70637;48.514;14.500;2023-07-31T00:36:09;20.00;54.50
81161;DHT22;70637;48.514;14.500;2023-07-31T00:38:35;19.90;54.70
81161;DHT22;70637;48.514;14.500;2023-07-31T00:41:00;19.80;54.60
81161;DHT22;70637;48.514;14.500;2023-07-31T00:43:26;19.80;54.80
81161;DHT22;70637;48.514;14.500;2023-07-31T00:45:52;19.80;55.00
81161;DHT22;70637;48.514;14.500;2023-07-31T00:48:17;19.80;55.00
81161;DHT22;70637;48.514;14.500;2023-07-31T00:50:43;19.70;54.90
81161;DHT22;70637;48.514;14.500;2023-07-31T00:53:09;19.70;55.00
81161;DHT22;70637;48.514;14.500;2023-07-31T00:55:34;19.60;55.20
81161;DHT22;70637;48.514;14.500;2023-07-31T00:58:00;19.60;55.30
81161;DHT22;70637;48.514;14.500;2023-07-31T01:00:26;19.60;55.30
81161;DHT22;70637;48.514;14.500;2023-07-31T01:02:52;19.60;55.30
81161;DHT22;70637;48.514;14.500;2023-07-31T01:05:33;19.60;55.30
81161;DHT22;70637;48.514;14.500;2023-07-31T01:08:11;19.60;55.30
81161;DHT22;70637;48.514;14.500;2023-07-31T01:10:49;19.60;55.40
81161;DHT22;70637;48.514;14.500;2023-07-31T01:13:17;19.60;55.70
81161;DHT22;70637;48.514;14.500;2023-07-31T01:15:43;19.50;55.60
81161;DHT22;70637;48.514;14.500;2023-07-31T01:18:08;19.50;55.30
81161;DHT22;70637;48.514;14.500;2023-07-31T01:20:35;19.50;55.30
81161;DHT22;70637;48.514;14.500;2023-07-31T01:25:54;19.40;55.30
81161;DHT22;70637;48.514;14.500;2023-07-31T01:28:27;19.40;55.20
81161;DHT22;70637;48.514;14.500;2023-07-31T01:30:58;19.20;55.30
81161;DHT22;70637;48.514;14.500;2023-07-31T01:33:24;19.20;55.50
81161;DHT22;70637;48.514;14.500;2023-07-31T01:35:51;19.20;55.80
81161;DHT22;70637;48.514;14.500;2023-07-31T01:38:21;19.10;55.90
81161;DHT22;70637;48.514;14.500;2023-07-31T01:40:51;19.10;56.00
81161;DHT22;70637;48.514;14.500;2023-07-31T01:43:17;19.00;56.00
81161;DHT22;70637;48.514;14.500;2023-07-31T01:45:43;19.00;56.10
81161;DHT22;70637;48.514;14.500;2023-07-31T01:48:09;18.90;56.10
81161;DHT22;70637;48.514;14.500;2023-07-31T01:50:34;18.80;56.20
81161;DHT22;70637;48.514;14.500;2023-07-31T01:53:00;18.80;56.50
81161;DHT22;70637;48.514;14.500;2023-07-31T01:55:25;18.70;56.60
81161;DHT22;70637;48.514;14.500;2023-07-31T01:57:51;18.70;56.60
81161;DHT22;70637;48.514;14.500;2023-07-31T02:00:17;18.60;56.60
81161;DHT22;70637;48.514;14.500;2023-07-31T02:02:43;18.50;56.60
81161;DHT22;70637;48.514;14.500;2023-07-31T02:05:09;18.50;56.70
81161;DHT22;70637;48.514;14.500;2023-07-31T02:07:35;18.40;57.60
81161;DHT22;70637;48.514;14.500;2023-07-31T02:10:01;18.40;56.70
81161;DHT22;70637;48.514;14.500;2023-07-31T02:12:27;18.30;56.70
81161;DHT22;70637;48.514;14.500;2023-07-31T02:14:55;18.30;56.70
81161;DHT22;70637;48.514;14.500;2023-07-31T02:17:21;18.20;56.80
81161;DHT22;70637;48.514;14.500;2023-07-31T02:19:47;18.20;56.80
81161;DHT22;70637;48.514;14.500;2023-07-31T02:22:12;18.20;56.90
81161;DHT22;70637;48.514;14.500;2023-07-31T02:24:38;18.20;57.10
81161;DHT22;70637;48.514;14.500;2023-07-31T02:27:04;18.20;57.10
81161;DHT22;70637;48.514;14.500;2023-07-31T02:29:30;18.10;57.10
81161;DHT22;70637;48.514;14.500;2023-07-31T02:31:55;18.10;57.20
81161;DHT22;70637;48.514;14.500;2023-07-31T02:34:21;18.00;57.10
81161;DHT22;70637;48.514;14.500;2023-07-31T02:36:46;17.90;57.10
81161;DHT22;70637;48.514;14.500;2023-07-31T02:39:12;17.90;57.50
81161;DHT22;70637;48.514;14.500;2023-07-31T02:41:38;17.80;57.70
81161;DHT22;70637;48.514;14.500;2023-07-31T02:44:03;17.80;58.10
81161;DHT22;70637;48.514;14.500;2023-07-31T02:46:29;17.70;58.00
81161;DHT22;70637;48.514;14.500;2023-07-31T02:48:55;17.70;58.10
81161;DHT22;70637;48.514;14.500;2023-07-31T02:51:20;17.70;58.20
81161;DHT22;70637;48.514;14.500;2023-07-31T02:53:47;17.60;59.20
81161;DHT22;70637;48.514;14.500;2023-07-31T02:56:13;17.60;58.40
81161;DHT22;70637;48.514;14.500;2023-07-31T02:58:39;17.60;58.40
81161;DHT22;70637;48.514;14.500;2023-07-31T03:01:04;17.50;58.30
81161;DHT22;70637;48.514;14.500;2023-07-31T03:03:30;17.60;58.40
81161;DHT22;70637;48.514;14.500;2023-07-31T03:05:56;17.50;58.30
81161;DHT22;70637;48.514;14.500;2023-07-31T03:08:22;17.40;58.40
81161;DHT22;70637;48.514;14.500;2023-07-31T03:10:47;17.40;58.40
81161;DHT22;70637;48.514;14.500;2023-07-31T03:13:13;17.40;58.40
81161;DHT22;70637;48.514;14.500;2023-07-31T03:15:42;17.40;59.40
81161;DHT22;70637;48.514;14.500;2023-07-31T03:18:09;17.40;58.30
81161;DHT22;70637;48.514;14.500;2023-07-31T03:20:34;17.30;58.30
81161;DHT22;70637;48.514;14.500;2023-07-31T03:23:00;17.30;58.40
81161;DHT22;70637;48.514;14.500;2023-07-31T03:25:25;17.20;58.40
81161;DHT22;70637;48.514;14.500;2023-07-31T03:27:51;17.20;58.50
81161;DHT22;70637;48.514;14.500;2023-07-31T03:30:17;17.10;58.60
81161;DHT22;70637;48.514;14.500;2023-07-31T03:32:42;17.10;58.90
81161;DHT22;70637;48.514;14.500;2023-07-31T03:35:08;17.00;58.90
81161;DHT22;70637;48.514;14.500;2023-07-31T03:37:33;17.00;59.00
81161;DHT22;70637;48.514;14.500;2023-07-31T03:39:59;17.00;59.10
81161;DHT22;70637;48.514;14.500;2023-07-31T03:42:27;17.00;59.40
81161;DHT22;70637;48.514;14.500;2023-07-31T03:44:53;16.90;59.40
81161;DHT22;70637;48.514;14.500;2023-07-31T03:47:19;17.00;59.40
81161;DHT22;70637;48.514;14.500;2023-07-31T03:49:44;17.00;59.30
81161;DHT22;70637;48.514;14.500;2023-07-31T03:52:10;17.00;59.30
81161;DHT22;70637;48.514;14.500;2023-07-31T03:54:35;16.90;59.20
81161;DHT22;70637;48.514;14.500;2023-07-31T03:57:01;16.90;59.40
81161;DHT22;70637;48.514;14.500;2023-07-31T03:59:27;16.90;59.40
81161;DHT22;70637;48.514;14.500;2023-07-31T04:01:52;16.90;59.50
81161;DHT22;70637;48.514;14.500;2023-07-31T04:04:18;16.90;59.60
81161;DHT22;70637;48.514;14.500;2023-07-31T04:06:44;16.90;59.60
81161;DHT22;70637;48.514;14.500;2023-07-31T04:09:09;16.90;59.70
81161;DHT22;70637;48.514;14.500;2023-07-31T04:11:35;16.90;59.60
81161;DHT22;70637;48.514;14.500;2023-07-31T04:14:01;16.90;59.50
81161;DHT22;70637;48.514;14.500;2023-07-31T04:16:26;16.90;59.50
81161;DHT22;70637;48.514;14.500;2023-07-31T04:18:52;17.00;59.50
81161;DHT22;70637;48.514;14.500;2023-07-31T04:21:18;17.00;59.40
81161;DHT22;70637;48.514;14.500;2023-07-31T04:23:43;17.10;59.30
81161;DHT22;70637;48.514;14.500;2023-07-31T04:26:09;17.10;59.20
81161;DHT22;70637;48.514;14.500;2023-07-31T04:28:34;17.10;59.10
81161;DHT22;70637;48.514;14.500;2023-07-31T04:31:00;17.20;59.10
81161;DHT22;70637;48.514;14.500;2023-07-31T04:33:25;17.20;59.00
81161;DHT22;70637;48.514;14.500;2023-07-31T04:35:54;17.30;58.90
81161;DHT22;70637;48.514;14.500;2023-07-31T04:38:21;17.20;58.80
81161;DHT22;70637;48.514;14.500;2023-07-31T04:40:47;17.20;58.70
81161;DHT22;70637;48.514;14.500;2023-07-31T04:43:12;17.20;58.90
81161;DHT22;70637;48.514;14.500;2023-07-31T04:45:38;17.20;59.00
81161;DHT22;70637;48.514;14.500;2023-07-31T04:48:04;17.20;59.10
81161;DHT22;70637;48.514;14.500;2023-07-31T04:50:29;17.20;59.10
81161;DHT22;70637;48.514;14.500;2023-07-31T04:52:56;17.20;59.20
81161;DHT22;70637;48.514;14.500;2023-07-31T04:55:22;17.20;59.20
81161;DHT22;70637;48.514;14.500;2023-07-31T04:57:47;17.30;59.20
81161;DHT22;70637;48.514;14.500;2023-07-31T05:00:13;17.20;59.10
81161;DHT22;70637;48.514;14.500;2023-07-31T05:02:39;17.30;59.20
81161;DHT22;70637;48.514;14.500;2023-07-31T05:05:04;17.20;59.30
81161;DHT22;70637;48.514;14.500;2023-07-31T05:07:30;17.20;59.20
81161;DHT22;70637;48.514;14.500;2023-07-31T05:09:56;17.30;59.20
81161;DHT22;70637;48.514;14.500;2023-07-31T05:12:21;17.30;59.30
81161;DHT22;70637;48.514;14.500;2023-07-31T05:14:47;17.40;59.20
81161;DHT22;70637;48.514;14.500;2023-07-31T05:17:12;17.50;59.30
81161;DHT22;70637;48.514;14.500;2023-07-31T05:19:38;17.50;59.10
81161;DHT22;70637;48.514;14.500;2023-07-31T05:22:04;17.60;58.80
81161;DHT22;70637;48.514;14.500;2023-07-31T05:24:29;17.80;58.60
81161;DHT22;70637;48.514;14.500;2023-07-31T05:26:55;17.90;58.60
81161;DHT22;70637;48.514;14.500;2023-07-31T05:29:22;18.00;58.30
81161;DHT22;70637;48.514;14.500;2023-07-31T05:31:48;18.10;58.20
81161;DHT22;70637;48.514;14.500;2023-07-31T05:34:13;18.20;58.10
81161;DHT22;70637;48.514;14.500;2023-07-31T05:36:39;18.20;58.10
81161;DHT22;70637;48.514;14.500;2023-07-31T05:39:05;18.30;58.00
81161;DHT22;70637;48.514;14.500;2023-07-31T05:41:34;18.50;58.30
81161;DHT22;70637;48.514;14.500;2023-07-31T05:44:00;18.60;58.30
81161;DHT22;70637;48.514;14.500;2023-07-31T05:46:26;18.70;58.00
81161;DHT22;70637;48.514;14.500;2023-07-31T05:48:51;18.90;57.30
81161;DHT22;70637;48.514;14.500;2023-07-31T05:51:17;18.90;57.00
81161;DHT22;70637;48.514;14.500;2023-07-31T05:53:42;19.00;57.00
81161;DHT22;70637;48.514;14.500;2023-07-31T05:56:09;19.10;56.90
81161;DHT22;70637;48.514;14.500;2023-07-31T05:58:34;19.30;56.40
81161;DHT22;70637;48.514;14.500;2023-07-31T06:01:00;19.40;55.80
81161;DHT22;70637;48.514;14.500;2023-07-31T06:03:26;19.50;55.40
81161;DHT22;70637;48.514;14.500;2023-07-31T06:05:51;19.70;54.70
81161;DHT22;70637;48.514;14.500;2023-07-31T06:08:17;19.60;53.80
81161;DHT22;70637;48.514;14.500;2023-07-31T06:14:05;19.60;53.80
81161;DHT22;70637;48.514;14.500;2023-07-31T06:16:31;19.70;52.80
81161;DHT22;70637;48.514;14.500;2023-07-31T06:18:56;19.70;52.70
81161;DHT22;70637;48.514;14.500;2023-07-31T06:21:22;19.70;52.80
81161;DHT22;70637;48.514;14.500;2023-07-31T06:23:47;19.80;52.40
81161;DHT22;70637;48.514;14.500;2023-07-31T06:26:13;19.90;51.30
81161;DHT22;70637;48.514;14.500;2023-07-31T06:28:39;19.90;50.60
81161;DHT22;70637;48.514;14.500;2023-07-31T06:31:05;19.80;51.00
81161;DHT22;70637;48.514;14.500;2023-07-31T06:33:30;19.90;51.20
81161;DHT22;70637;48.514;14.500;2023-07-31T06:35:56;20.00;50.60
81161;DHT22;70637;48.514;14.500;2023-07-31T06:38:24;20.20;50.30
81161;DHT22;70637;48.514;14.500;2023-07-31T06:40:50;20.30;49.60
81161;DHT22;70637;48.514;14.500;2023-07-31T06:43:15;20.40;49.40
81161;DHT22;70637;48.514;14.500;2023-07-31T06:45:41;20.40;48.50
81161;DHT22;70637;48.514;14.500;2023-07-31T06:48:10;20.20;49.10
81161;DHT22;70637;48.514;14.500;2023-07-31T06:50:35;20.50;49.00
81161;DHT22;70637;48.514;14.500;2023-07-31T06:53:01;20.30;48.20
81161;DHT22;70637;48.514;14.500;2023-07-31T06:55:27;20.10;48.60
81161;DHT22;70637;48.514;14.500;2023-07-31T06:57:54;20.10;50.30
81161;DHT22;70637;48.514;14.500;2023-07-31T07:00:22;20.20;49.10
81161;DHT22;70637;48.514;14.500;2023-07-31T07:02:47;20.30;48.80
81161;DHT22;70637;48.514;14.500;2023-07-31T07:05:13;20.40;47.80
81161;DHT22;70637;48.514;14.500;2023-07-31T07:07:39;20.70;48.10
81161;DHT22;70637;48.514;14.500;2023-07-31T07:10:06;20.90;47.80
81161;DHT22;70637;48.514;14.500;2023-07-31T07:12:32;21.00;46.10
81161;DHT22;70637;48.514;14.500;2023-07-31T07:14:58;21.10;46.00
81161;DHT22;70637;48.514;14.500;2023-07-31T07:17:25;21.40;45.90
81161;DHT22;70637;48.514;14.500;2023-07-31T07:19:51;21.70;45.20
81161;DHT22;70637;48.514;14.500;2023-07-31T07:22:17;21.60;44.20
81161;DHT22;70637;48.514;14.500;2023-07-31T07:24:43;21.30;44.90
81161;DHT22;70637;48.514;14.500;2023-07-31T07:27:08;21.40;44.00
81161;DHT22;70637;48.514;14.500;2023-07-31T07:29:34;21.60;43.90
81161;DHT22;70637;48.514;14.500;2023-07-31T07:32:00;21.60;43.60
81161;DHT22;70637;48.514;14.500;2023-07-31T07:34:27;21.80;43.40
81161;DHT22;70637;48.514;14.500;2023-07-31T07:36:53;22.10;43.60
81161;DHT22;70637;48.514;14.500;2023-07-31T07:39:21;22.20;42.90
81161;DHT22;70637;48.514;14.500;2023-07-31T07:41:47;22.30;41.60
81161;DHT22;70637;48.514;14.500;2023-07-31T07:44:13;22.40;42.20
81161;DHT22;70637;48.514;14.500;2023-07-31T07:46:39;22.50;41.60
81161;DHT22;70637;48.514;14.500;2023-07-31T07:49:05;22.60;41.40
81161;DHT22;70637;48.514;14.500;2023-07-31T07:51:31;22.70;40.90
81161;DHT22;70637;48.514;14.500;2023-07-31T07:53:58;22.70;41.00
81161;DHT22;70637;48.514;14.500;2023-07-31T07:56:25;22.90;41.10
81161;DHT22;70637;48.514;14.500;2023-07-31T07:58:51;22.80;39.70
81161;DHT22;70637;48.514;14.500;2023-07-31T08:01:17;22.30;40.40
81161;DHT22;70637;48.514;14.500;2023-07-31T08:03:47;22.20;40.30
81161;DHT22;70637;48.514;14.500;2023-07-31T08:06:13;22.40;41.50
81161;DHT22;70637;48.514;14.500;2023-07-31T08:08:39;22.70;40.50
81161;DHT22;70637;48.514;14.500;2023-07-31T08:11:05;22.60;39.40
81161;DHT22;70637;48.514;14.500;2023-07-31T08:13:31;22.60;38.70
81161;DHT22;70637;48.514;14.500;2023-07-31T08:15:56;22.50;39.00
81161;DHT22;70637;48.514;14.500;2023-07-31T08:18:22;22.40;40.30
81161;DHT22;70637;48.514;14.500;2023-07-31T08:20:48;22.40;40.80
81161;DHT22;70637;48.514;14.500;2023-07-31T08:23:13;22.10;40.40
81161;DHT22;70637;48.514;14.500;2023-07-31T08:25:39;22.30;41.90
81161;DHT22;70637;48.514;14.500;2023-07-31T08:28:06;22.60;40.90
81161;DHT22;70637;48.514;14.500;2023-07-31T08:30:32;23.00;40.50
81161;DHT22;70637;48.514;14.500;2023-07-31T08:33:02;23.30;39.60
81161;DHT22;70637;48.514;14.500;2023-07-31T08:35:28;23.40;39.30
81161;DHT22;70637;48.514;14.500;2023-07-31T08:37:54;23.70;40.20
81161;DHT22;70637;48.514;14.500;2023-07-31T08:40:20;24.00;38.90
81161;DHT22;70637;48.514;14.500;2023-07-31T08:42:48;24.30;39.00
81161;DHT22;70637;48.514;14.500;2023-07-31T08:45:15;24.50;37.60
81161;DHT22;70637;48.514;14.500;2023-07-31T08:47:46;24.40;37.20
81161;DHT22;70637;48.514;14.500;2023-07-31T08:50:13;24.70;37.10
81161;DHT22;70637;48.514;14.500;2023-07-31T08:52:39;24.70;36.30
81161;DHT22;70637;48.514;14.500;2023-07-31T08:55:06;24.60;36.90
81161;DHT22;70637;48.514;14.500;2023-07-31T08:57:33;24.30;36.10
81161;DHT22;70637;48.514;14.500;2023-07-31T09:00:00;24.20;37.10
81161;DHT22;70637;48.514;14.500;2023-07-31T09:02:34;23.90;37.20
81161;DHT22;70637;48.514;14.500;2023-07-31T09:05:01;23.70;37.80
81161;DHT22;70637;48.514;14.500;2023-07-31T09:07:29;23.70;37.50
81161;DHT22;70637;48.514;14.500;2023-07-31T09:09:55;23.90;37.90
81161;DHT22;70637;48.514;14.500;2023-07-31T09:12:20;23.80;37.00
81161;DHT22;70637;48.514;14.500;2023-07-31T09:14:47;23.60;38.00
81161;DHT22;70637;48.514;14.500;2023-07-31T09:17:12;23.60;37.30
81161;DHT22;70637;48.514;14.500;2023-07-31T09:19:38;23.40;37.80
81161;DHT22;70637;48.514;14.500;2023-07-31T09:22:05;23.50;38.00
81161;DHT22;70637;48.514;14.500;2023-07-31T09:24:32;23.80;37.90
81161;DHT22;70637;48.514;14.500;2023-07-31T09:26:59;24.10;37.20
81161;DHT22;70637;48.514;14.500;2023-07-31T09:29:26;24.40;37.10
81161;DHT22;70637;48.514;14.500;2023-07-31T09:31:53;24.70;36.70
81161;DHT22;70637;48.514;14.500;2023-07-31T09:34:19;25.10;36.70
81161;DHT22;70637;48.514;14.500;2023-07-31T09:36:49;25.20;36.60
81161;DHT22;70637;48.514;14.500;2023-07-31T09:39:16;25.40;35.10
81161;DHT22;70637;48.514;14.500;2023-07-31T09:41:43;24.70;35.70
81161;DHT22;70637;48.514;14.500;2023-07-31T09:44:10;24.40;36.40
81161;DHT22;70637;48.514;14.500;2023-07-31T09:46:36;24.70;37.40
81161;DHT22;70637;48.514;14.500;2023-07-31T09:49:12;25.00;36.40
81161;DHT22;70637;48.514;14.500;2023-07-31T09:51:42;25.40;35.90
81161;DHT22;70637;48.514;14.500;2023-07-31T09:54:15;25.80;35.70
81161;DHT22;70637;48.514;14.500;2023-07-31T09:56:46;25.70;34.60
81161;DHT22;70637;48.514;14.500;2023-07-31T09:59:17;25.30;35.00
81161;DHT22;70637;48.514;14.500;2023-07-31T10:01:43;25.30;36.50
81161;DHT22;70637;48.514;14.500;2023-07-31T10:04:11;25.40;36.20
81161;DHT22;70637;48.514;14.500;2023-07-31T10:06:37;25.60;35.50
81161;DHT22;70637;48.514;14.500;2023-07-31T10:09:09;25.30;36.20
81161;DHT22;70637;48.514;14.500;2023-07-31T10:11:43;25.60;35.70
81161;DHT22;70637;48.514;14.500;2023-07-31T10:14:11;26.00;35.50
81161;DHT22;70637;48.514;14.500;2023-07-31T10:16:38;26.20;35.20
81161;DHT22;70637;48.514;14.500;2023-07-31T10:19:05;26.20;34.30
81161;DHT22;70637;48.514;14.500;2023-07-31T10:21:32;25.70;34.40
81161;DHT22;70637;48.514;14.500;2023-07-31T10:24:04;25.70;35.40
81161;DHT22;70637;48.514;14.500;2023-07-31T10:26:32;26.10;36.50
81161;DHT22;70637;48.514;14.500;2023-07-31T10:28:59;26.50;34.40
81161;DHT22;70637;48.514;14.500;2023-07-31T10:31:27;26.80;34.10
81161;DHT22;70637;48.514;14.500;2023-07-31T10:33:54;27.10;33.80
81161;DHT22;70637;48.514;14.500;2023-07-31T10:36:20;27.40;34.40
81161;DHT22;70637;48.514;14.500;2023-07-31T10:38:49;27.80;33.60
81161;DHT22;70637;48.514;14.500;2023-07-31T10:41:14;27.80;31.70
81161;DHT22;70637;48.514;14.500;2023-07-31T10:43:40;28.00;32.10
81161;DHT22;70637;48.514;14.500;2023-07-31T10:46:11;28.40;32.00
81161;DHT22;70637;48.514;14.500;2023-07-31T10:48:39;28.70;31.80
81161;DHT22;70637;48.514;14.500;2023-07-31T10:51:09;29.00;30.60
81161;DHT22;70637;48.514;14.500;2023-07-31T10:53:36;28.50;29.70
81161;DHT22;70637;48.514;14.500;2023-07-31T10:56:04;27.90;30.10
81161;DHT22;70637;48.514;14.500;2023-07-31T10:58:31;27.60;31.60
81161;DHT22;70637;48.514;14.500;2023-07-31T11:01:00;27.90;31.30
81161;DHT22;70637;48.514;14.500;2023-07-31T11:03:40;28.20;30.60
81161;DHT22;70637;48.514;14.500;2023-07-31T11:06:06;28.50;31.10
81161;DHT22;70637;48.514;14.500;2023-07-31T11:08:36;28.80;29.60
81161;DHT22;70637;48.514;14.500;2023-07-31T11:11:08;28.90;29.50
81161;DHT22;70637;48.514;14.500;2023-07-31T11:16:06;29.30;30.00
81161;DHT22;70637;48.514;14.500;2023-07-31T11:18:31;29.10;29.20
81161;DHT22;70637;48.514;14.500;2023-07-31T11:20:57;28.80;29.70
81161;DHT22;70637;48.514;14.500;2023-07-31T11:23:23;28.90;29.60
81161;DHT22;70637;48.514;14.500;2023-07-31T11:25:50;28.60;29.30
81161;DHT22;70637;48.514;14.500;2023-07-31T11:28:17;27.90;30.20
81161;DHT22;70637;48.514;14.500;2023-07-31T11:30:44;27.20;30.40
81161;DHT22;70637;48.514;14.500;2023-07-31T11:33:12;27.00;32.30
81161;DHT22;70637;48.514;14.500;2023-07-31T11:35:56;27.00;31.80
81161;DHT22;70637;48.514;14.500;2023-07-31T11:38:32;27.30;31.10
81161;DHT22;70637;48.514;14.500;2023-07-31T11:41:00;27.00;31.60
81161;DHT22;70637;48.514;14.500;2023-07-31T11:43:28;26.60;32.00
81161;DHT22;70637;48.514;14.500;2023-07-31T11:46:00;26.10;32.50
81161;DHT22;70637;48.514;14.500;2023-07-31T11:48:35;25.60;33.70
81161;DHT22;70637;48.514;14.500;2023-07-31T11:51:02;25.20;34.40
81161;DHT22;70637;48.514;14.500;2023-07-31T11:53:31;25.00;34.30
81161;DHT22;70637;48.514;14.500;2023-07-31T11:55:59;24.90;34.60
81161;DHT22;70637;48.514;14.500;2023-07-31T11:58:26;24.90;35.40
81161;DHT22;70637;48.514;14.500;2023-07-31T12:00:52;24.90;35.80
81161;DHT22;70637;48.514;14.500;2023-07-31T12:03:18;25.20;35.20
81161;DHT22;70637;48.514;14.500;2023-07-31T12:05:44;25.60;35.00
81161;DHT22;70637;48.514;14.500;2023-07-31T12:08:12;26.10;34.70
81161;DHT22;70637;48.514;14.500;2023-07-31T12:10:38;26.20;34.10
81161;DHT22;70637;48.514;14.500;2023-07-31T12:13:10;26.20;33.70
81161;DHT22;70637;48.514;14.500;2023-07-31T12:15:40;26.40;34.00
81161;DHT22;70637;48.514;14.500;2023-07-31T12:18:10;26.60;33.50
81161;DHT22;70637;48.514;14.500;2023-07-31T12:20:47;26.30;33.30
81161;DHT22;70637;48.514;14.500;2023-07-31T12:23:34;25.70;32.60
81161;DHT22;70637;48.514;14.500;2023-07-31T12:26:05;25.70;33.60
81161;DHT22;70637;48.514;14.500;2023-07-31T12:28:36;25.70;34.60
81161;DHT22;70637;48.514;14.500;2023-07-31T12:31:03;25.60;33.80
81161;DHT22;70637;48.514;14.500;2023-07-31T12:33:33;25.20;34.00
81161;DHT22;70637;48.514;14.500;2023-07-31T12:36:02;25.10;34.90
81161;DHT22;70637;48.514;14.500;2023-07-31T12:38:28;24.90;34.30
81161;DHT22;70637;48.514;14.500;2023-07-31T12:40:54;25.20;34.00
81161;DHT22;70637;48.514;14.500;2023-07-31T12:43:20;25.50;35.00
81161;DHT22;70637;48.514;14.500;2023-07-31T12:45:45;25.50;33.90
81161;DHT22;70637;48.514;14.500;2023-07-31T12:48:13;25.90;33.60
81161;DHT22;70637;48.514;14.500;2023-07-31T12:50:39;26.00;33.20
81161;DHT22;70637;48.514;14.500;2023-07-31T12:53:05;26.10;33.80
81161;DHT22;70637;48.514;14.500;2023-07-31T12:55:31;26.40;33.80
81161;DHT22;70637;48.514;14.500;2023-07-31T12:57:57;26.60;32.80
81161;DHT22;70637;48.514;14.500;2023-07-31T13:00:23;27.60;33.00
81161;DHT22;70637;48.514;14.500;2023-07-31T13:02:48;28.20;30.70
81161;DHT22;70637;48.514;14.500;2023-07-31T13:05:14;28.60;30.30
81161;DHT22;70637;48.514;14.500;2023-07-31T13:07:40;28.80;29.70
81161;DHT22;70637;48.514;14.500;2023-07-31T13:10:07;29.10;30.00
81161;DHT22;70637;48.514;14.500;2023-07-31T13:12:33;29.80;29.40
81161;DHT22;70637;48.514;14.500;2023-07-31T13:14:59;30.10;28.40
81161;DHT22;70637;48.514;14.500;2023-07-31T13:17:25;30.20;27.60
81161;DHT22;70637;48.514;14.500;2023-07-31T13:19:51;30.20;27.60
81161;DHT22;70637;48.514;14.500;2023-07-31T13:22:17;29.80;27.60
81161;DHT22;70637;48.514;14.500;2023-07-31T13:24:42;29.90;27.90
81161;DHT22;70637;48.514;14.500;2023-07-31T13:27:08;29.90;27.20
81161;DHT22;70637;48.514;14.500;2023-07-31T13:29:34;29.60;27.20
81161;DHT22;70637;48.514;14.500;2023-07-31T13:31:59;29.90;27.10
81161;DHT22;70637;48.514;14.500;2023-07-31T13:34:25;29.90;26.70
81161;DHT22;70637;48.514;14.500;2023-07-31T13:36:50;30.00;27.50
81161;DHT22;70637;48.514;14.500;2023-07-31T13:39:16;30.20;27.10
81161;DHT22;70637;48.514;14.500;2023-07-31T13:41:42;30.40;26.50
81161;DHT22;70637;48.514;14.500;2023-07-31T13:44:07;30.70;26.20
81161;DHT22;70637;48.514;14.500;2023-07-31T13:46:33;31.10;25.30
81161;DHT22;70637;48.514;14.500;2023-07-31T13:48:59;32.30;24.80
81161;DHT22;70637;48.514;14.500;2023-07-31T13:51:29;32.60;23.40
81161;DHT22;70637;48.514;14.500;2023-07-31T13:54:05;32.20;24.00
81161;DHT22;70637;48.514;14.500;2023-07-31T13:56:32;33.00;24.10
81161;DHT22;70637;48.514;14.500;2023-07-31T13:58:58;35.00;23.00
81161;DHT22;70637;48.514;14.500;2023-07-31T14:01:23;37.50;22.10
81161;DHT22;70637;48.514;14.500;2023-07-31T14:03:49;39.40;20.20
81161;DHT22;70637;48.514;14.500;2023-07-31T14:06:15;41.00;18.80
81161;DHT22;70637;48.514;14.500;2023-07-31T14:08:40;39.60;17.60
81161;DHT22;70637;48.514;14.500;2023-07-31T14:11:06;39.20;18.90
81161;DHT22;70637;48.514;14.500;2023-07-31T14:13:32;39.80;17.90
81161;DHT22;70637;48.514;14.500;2023-07-31T14:15:57;39.90;18.40
81161;DHT22;70637;48.514;14.500;2023-07-31T14:18:23;39.70;17.30
81161;DHT22;70637;48.514;14.500;2023-07-31T14:20:49;40.40;17.20
81161;DHT22;70637;48.514;14.500;2023-07-31T14:23:14;42.00;16.60
81161;DHT22;70637;48.514;14.500;2023-07-31T14:25:41;42.50;15.70
81161;DHT22;70637;48.514;14.500;2023-07-31T14:28:06;42.20;16.00
81161;DHT22;70637;48.514;14.500;2023-07-31T14:30:32;40.50;15.70
81161;DHT22;70637;48.514;14.500;2023-07-31T14:32:58;40.00;17.30
81161;DHT22;70637;48.514;14.500;2023-07-31T14:35:26;41.90;16.90
81161;DHT22;70637;48.514;14.500;2023-07-31T14:37:51;43.50;15.50
81161;DHT22;70637;48.514;14.500;2023-07-31T14:40:17;43.30;15.10
81161;DHT22;70637;48.514;14.500;2023-07-31T14:42:43;43.00;14.60
81161;DHT22;70637;48.514;14.500;2023-07-31T14:45:09;42.50;15.20
81161;DHT22;70637;48.514;14.500;2023-07-31T14:47:36;40.50;16.10
81161;DHT22;70637;48.514;14.500;2023-07-31T14:50:02;40.70;16.20
81161;DHT22;70637;48.514;14.500;2023-07-31T14:52:28;41.70;16.40
81161;DHT22;70637;48.514;14.500;2023-07-31T14:54:54;43.50;15.40
81161;DHT22;70637;48.514;14.500;2023-07-31T14:57:20;41.90;15.10
81161;DHT22;70637;48.514;14.500;2023-07-31T14:59:47;42.00;14.90
81161;DHT22;70637;48.514;14.500;2023-07-31T15:02:16;42.30;16.00
81161;DHT22;70637;48.514;14.500;2023-07-31T15:04:41;44.40;14.80
81161;DHT22;70637;48.514;14.500;2023-07-31T15:07:07;44.90;14.10
81161;DHT22;70637;48.514;14.500;2023-07-31T15:09:33;45.60;13.40
81161;DHT22;70637;48.514;14.500;2023-07-31T15:11:58;45.00;13.80
81161;DHT22;70637;48.514;14.500;2023-07-31T15:14:25;44.40;13.80
81161;DHT22;70637;48.514;14.500;2023-07-31T15:16:53;45.00;13.90
81161;DHT22;70637;48.514;14.500;2023-07-31T15:19:18;46.00;13.40
81161;DHT22;70637;48.514;14.500;2023-07-31T15:21:44;45.90;13.00